Time;durP1;ratioP1;P1;durP2;ratioP2;P2;SDS_P1;SDS_P2;PMS_P1;PMS_P2;Temp;Humidity;BMP_temperature;BMP_pressure;BME280_temperature;BME280_humidity;BME280_pressure;Samples;Min_cycle;Max_cycle;Signal;HPM_P1;HPM_P2
2023/09/16 00:02:24;;;;;;;20.03;11.53;;;17.70;83.10;;;;;;4969818;28;20293;-71
2023/09/16 00:04:51;;;;;;;23.10;13.00;;;17.70;83.30;;;;;;4971229;28;20635;-72
2023/09/16 00:07:17;;;;;;;26.00;14.10;;;17.80;83.10;;;;;;4972366;28;20192;-73
2023/09/16 00:09:42;;;;;;;21.17;12.80;;;17.80;82.70;;;;;;4972610;28;20470;-72
2023/09/16 00:12:08;;;;;;;25.30;14.53;;;17.80;82.80;;;;;;4974308;28;20239;-74
2023/09/16 00:14:33;;;;;;;23.97;12.83;;;17.80;82.80;;;;;;4976470;28;20206;-73
2023/09/16 00:17:02;;;;;;;27.27;13.47;;;17.80;82.80;;;;;;4971919;28;20204;-74
2023/09/16 00:19:28;;;;;;;22.33;13.33;;;17.80;82.80;;;;;;4974916;28;20183;-72
2023/09/16 00:21:54;;;;;;;21.13;12.50;;;17.80;82.70;;;;;;4974940;28;20426;-73
2023/09/16 00:24:20;;;;;;;22.03;12.73;;;17.80;82.40;;;;;;4975111;28;20229;-72
2023/09/16 00:26:46;;;;;;;20.27;11.20;;;17.90;82.50;;;;;;4974466;28;20467;-70
2023/09/16 00:29:11;;;;;;;17.77;11.13;;;17.90;82.80;;;;;;4976846;28;20310;-72
2023/09/16 00:31:37;;;;;;;21.27;11.87;;;17.90;83.00;;;;;;4974075;28;20187;-72
2023/09/16 00:34:03;;;;;;;18.77;11.60;;;17.90;82.80;;;;;;4981254;28;20196;-72
2023/09/16 00:36:29;;;;;;;19.37;10.97;;;17.90;82.80;;;;;;4970351;28;20212;-73
2023/09/16 00:38:54;;;;;;;20.57;11.40;;;17.80;82.80;;;;;;4974842;28;20439;-72
2023/09/16 00:41:20;;;;;;;18.37;11.37;;;17.80;83.00;;;;;;4973898;28;20187;-72
2023/09/16 00:43:46;;;;;;;23.97;11.97;;;17.80;83.10;;;;;;4976236;28;20185;-73
2023/09/16 00:46:11;;;;;;;18.83;12.07;;;17.70;83.10;;;;;;4969198;28;20211;-73
2023/09/16 00:48:38;;;;;;;16.90;10.63;;;17.70;83.30;;;;;;4978646;28;20307;-72
2023/09/16 00:51:05;;;;;;;21.50;12.03;;;17.60;83.40;;;;;;4972488;28;20195;-72
2023/09/16 00:53:31;;;;;;;21.40;12.67;;;17.60;83.60;;;;;;4974240;28;20424;-73
2023/09/16 00:55:56;;;;;;;22.60;12.23;;;17.60;83.70;;;;;;4969934;28;20992;-73
2023/09/16 00:58:22;;;;;;;20.43;12.20;;;17.60;83.70;;;;;;4974544;28;20669;-74
2023/09/16 01:00:48;;;;;;;21.63;12.40;;;17.50;83.70;;;;;;4974606;28;20660;-75
2023/09/16 01:03:14;;;;;;;18.33;10.73;;;17.50;83.80;;;;;;4974561;28;20183;-72
2023/09/16 01:05:40;;;;;;;17.43;11.00;;;17.50;84.00;;;;;;4974021;28;20322;-72
2023/09/16 01:08:07;;;;;;;20.03;11.63;;;17.60;83.80;;;;;;4975363;28;20983;-75
2023/09/16 01:10:33;;;;;;;20.10;12.20;;;17.60;83.80;;;;;;4976124;28;20463;-74
2023/09/16 01:12:58;;;;;;;22.30;12.90;;;17.50;83.70;;;;;;4971614;28;20569;-73
2023/09/16 01:15:31;;;;;;;20.60;12.37;;;17.50;83.80;;;;;;4973822;28;20586;-72
2023/09/16 01:18:23;;;;;;;19.03;11.13;;;17.60;83.70;;;;;;4971776;28;20188;-75
2023/09/16 01:20:49;;;;;;;18.50;11.40;;;17.60;83.70;;;;;;4974957;28;20420;-75
2023/09/16 01:23:18;;;;;;;22.63;11.37;;;17.60;83.60;;;;;;4973617;28;20459;-73
2023/09/16 01:25:44;;;;;;;17.17;10.57;;;17.60;83.70;;;;;;4973134;28;20986;-74
2023/09/16 01:28:09;;;;;;;19.50;11.27;;;17.60;83.80;;;;;;4971347;28;20422;-72
2023/09/16 01:30:39;;;;;;;18.70;11.30;;;17.50;83.60;;;;;;4975793;28;20341;-73
2023/09/16 01:33:36;;;;;;;17.30;10.77;;;17.50;83.70;;;;;;4975204;28;20238;-74
2023/09/16 01:36:09;;;;;;;19.43;12.23;;;17.50;83.80;;;;;;4956503;28;21051;-74
2023/09/16 01:38:37;;;;;;;16.47;10.67;;;17.50;83.80;;;;;;4973856;28;20967;-74
2023/09/16 01:41:05;;;;;;;20.10;12.47;;;17.50;83.80;;;;;;4971859;28;20442;-73
2023/09/16 01:43:31;;;;;;;19.20;12.60;;;17.50;83.80;;;;;;4970342;28;20474;-73
2023/09/16 01:45:57;;;;;;;21.27;11.93;;;17.30;83.70;;;;;;4968179;28;20471;-73
2023/09/16 01:48:23;;;;;;;23.27;12.30;;;17.30;83.80;;;;;;4975155;28;20438;-73
2023/09/16 01:50:49;;;;;;;21.40;12.10;;;17.40;83.60;;;;;;4971486;28;20227;-72
2023/09/16 01:53:14;;;;;;;20.77;12.13;;;17.40;82.40;;;;;;4976207;28;20191;-72
2023/09/16 01:55:40;;;;;;;20.80;12.27;;;17.40;82.40;;;;;;4971412;28;20558;-73
2023/09/16 01:58:08;;;;;;;19.83;11.40;;;17.40;82.40;;;;;;4976206;28;20195;-72
2023/09/16 02:00:34;;;;;;;18.10;11.63;;;17.30;82.40;;;;;;4975174;28;20300;-72
2023/09/16 02:02:59;;;;;;;25.57;13.60;;;17.20;82.50;;;;;;4971152;28;20457;-73
2023/09/16 02:05:25;;;;;;;18.80;11.77;;;17.10;82.80;;;;;;4974296;28;20466;-72
2023/09/16 02:07:51;;;;;;;20.60;11.73;;;17.10;83.30;;;;;;4981582;28;20189;-73
2023/09/16 02:10:16;;;;;;;19.87;11.40;;;17.00;83.60;;;;;;4980626;28;20541;-72
2023/09/16 02:12:42;;;;;;;21.80;12.03;;;17.00;84.10;;;;;;4980592;28;20762;-73
2023/09/16 02:15:09;;;;;;;19.03;11.57;;;17.00;84.00;;;;;;4975683;28;20270;-72
2023/09/16 02:17:41;;;;;;;24.17;11.80;;;17.00;84.10;;;;;;4973814;28;20190;-72
2023/09/16 02:20:11;;;;;;;19.87;12.70;;;16.90;84.40;;;;;;4973395;28;20504;-72
2023/09/16 02:22:37;;;;;;;17.60;11.70;;;16.90;84.60;;;;;;4971738;28;20521;-72
2023/09/16 02:25:03;;;;;;;18.90;11.47;;;16.80;84.90;;;;;;4969351;28;20484;-74
2023/09/16 02:27:29;;;;;;;18.23;12.03;;;16.80;85.20;;;;;;4969633;28;20426;-71
2023/09/16 02:29:54;;;;;;;18.70;10.93;;;16.80;85.50;;;;;;4971991;28;20621;-73
2023/09/16 02:32:20;;;;;;;18.27;11.47;;;16.90;85.50;;;;;;4977724;28;20257;-72
2023/09/16 02:34:45;;;;;;;20.17;11.10;;;16.90;85.20;;;;;;4975493;28;20203;-73
2023/09/16 02:37:11;;;;;;;24.40;12.23;;;17.00;84.90;;;;;;4973280;28;20284;-73
2023/09/16 02:39:36;;;;;;;20.30;12.80;;;16.90;84.90;;;;;;4976478;28;20187;-74
2023/09/16 02:42:02;;;;;;;20.83;12.03;;;16.90;85.00;;;;;;4975232;28;20844;-72
2023/09/16 02:44:30;;;;;;;25.67;14.77;;;16.90;85.20;;;;;;4971863;28;20282;-73
2023/09/16 02:46:56;;;;;;;26.07;14.37;;;16.90;85.00;;;;;;4962870;28;20668;-73
2023/09/16 02:49:22;;;;;;;20.17;11.97;;;16.90;85.00;;;;;;4971462;28;20575;-73
2023/09/16 02:51:48;;;;;;;20.80;12.03;;;16.90;84.70;;;;;;4970268;28;20186;-73
2023/09/16 02:54:14;;;;;;;17.00;11.03;;;16.90;85.00;;;;;;4971772;28;20194;-73
2023/09/16 02:56:40;;;;;;;22.40;12.13;;;16.90;85.30;;;;;;4972603;28;20978;-72
2023/09/16 02:59:06;;;;;;;19.57;11.77;;;16.90;85.50;;;;;;4974513;28;20540;-75
2023/09/16 03:01:31;;;;;;;19.40;12.47;;;17.00;85.50;;;;;;4973372;28;20227;-74
2023/09/16 03:03:57;;;;;;;17.53;11.70;;;17.00;85.30;;;;;;4972217;28;20183;-75
2023/09/16 03:06:23;;;;;;;18.43;11.57;;;17.00;85.00;;;;;;4969320;28;20348;-75
2023/09/16 03:08:49;;;;;;;19.77;12.17;;;17.00;84.90;;;;;;4972539;28;20175;-75
2023/09/16 03:11:15;;;;;;;20.80;11.67;;;17.00;84.90;;;;;;4972260;28;20430;-73
2023/09/16 03:13:42;;;;;;;18.30;11.87;;;17.00;84.90;;;;;;4972555;28;20450;-73
2023/09/16 03:16:22;;;;;;;19.87;11.93;;;16.90;84.70;;;;;;4970493;28;20215;-72
2023/09/16 03:18:49;;;;;;;21.83;11.97;;;16.80;84.90;;;;;;4973611;28;20437;-75
2023/09/16 03:21:16;;;;;;;19.43;11.90;;;16.80;85.20;;;;;;4975120;28;20418;-72
2023/09/16 03:23:43;;;;;;;21.83;11.97;;;16.80;85.30;;;;;;4974807;28;20411;-71
2023/09/16 03:26:10;;;;;;;19.67;11.57;;;16.90;85.30;;;;;;4971383;28;20494;-71
2023/09/16 03:28:38;;;;;;;18.63;11.60;;;16.90;85.30;;;;;;4973373;28;20422;-72
2023/09/16 03:31:03;;;;;;;21.50;12.53;;;16.80;85.20;;;;;;4969217;28;21194;-72
2023/09/16 03:33:29;;;;;;;24.33;13.70;;;16.80;85.30;;;;;;4971091;28;20459;-72
2023/09/16 03:35:54;;;;;;;20.77;11.97;;;16.70;85.50;;;;;;4971558;28;20253;-73
2023/09/16 03:38:22;;;;;;;26.50;14.67;;;16.70;85.70;;;;;;4972148;28;20231;-73
2023/09/16 03:40:47;;;;;;;19.93;11.93;;;16.60;85.70;;;;;;4975223;28;20190;-72
2023/09/16 03:43:13;;;;;;;20.20;11.80;;;16.70;85.90;;;;;;4972092;28;20426;-74
2023/09/16 03:45:39;;;;;;;19.73;11.67;;;16.70;86.00;;;;;;4968041;28;20313;-73
2023/09/16 03:48:05;;;;;;;18.87;12.07;;;16.80;85.90;;;;;;4975602;28;20188;-74
2023/09/16 03:50:30;;;;;;;19.30;12.33;;;16.80;85.70;;;;;;4975248;28;20575;-72
2023/09/16 03:52:56;;;;;;;21.97;12.10;;;16.80;85.60;;;;;;4971958;28;20421;-72
2023/09/16 03:55:22;;;;;;;20.40;12.70;;;16.80;85.50;;;;;;4967892;28;20214;-72
2023/09/16 03:57:47;;;;;;;23.03;13.37;;;16.90;85.50;;;;;;4972200;28;20179;-72
2023/09/16 04:00:13;;;;;;;24.23;13.63;;;16.90;85.30;;;;;;4972261;28;20255;-72
2023/09/16 04:02:39;;;;;;;22.10;13.50;;;16.90;85.30;;;;;;4972574;28;20187;-72
2023/09/16 04:05:05;;;;;;;22.73;13.00;;;16.90;85.20;;;;;;4968305;28;20483;-72
2023/09/16 04:07:32;;;;;;;17.77;11.07;;;16.80;85.00;;;;;;4971457;28;20505;-72
2023/09/16 04:09:57;;;;;;;21.63;12.90;;;16.70;85.20;;;;;;4970657;28;20478;-73
2023/09/16 04:12:23;;;;;;;23.87;14.03;;;16.70;85.30;;;;;;4971408;28;20422;-73
2023/09/16 04:14:50;;;;;;;28.80;14.47;;;16.60;85.60;;;;;;4967179;28;20222;-72
2023/09/16 04:17:15;;;;;;;26.20;15.60;;;16.60;85.70;;;;;;4972272;28;20675;-73
2023/09/16 04:19:41;;;;;;;24.90;14.40;;;16.60;85.90;;;;;;4972478;28;20432;-72
2023/09/16 04:22:06;;;;;;;26.70;15.37;;;16.50;86.00;;;;;;4972992;28;20186;-72
2023/09/16 04:24:32;;;;;;;23.50;14.30;;;16.50;86.20;;;;;;4970680;28;20180;-73
2023/09/16 04:26:57;;;;;;;31.07;16.57;;;16.50;86.30;;;;;;4969952;28;20210;-71
2023/09/16 04:29:23;;;;;;;23.90;14.67;;;16.60;86.30;;;;;;4974292;28;20592;-72
2023/09/16 04:31:49;;;;;;;26.37;15.70;;;16.60;86.20;;;;;;4970949;28;20198;-73
2023/09/16 04:34:14;;;;;;;25.20;14.47;;;16.50;86.30;;;;;;4975091;28;20234;-75
2023/09/16 04:36:40;;;;;;;25.57;15.53;;;16.50;86.50;;;;;;4971206;28;20335;-71
2023/09/16 04:39:06;;;;;;;24.90;13.97;;;16.40;86.50;;;;;;4972753;28;20289;-73
2023/09/16 04:41:31;;;;;;;24.53;14.10;;;16.50;86.60;;;;;;4971693;28;20242;-72
2023/09/16 04:43:57;;;;;;;24.30;13.50;;;16.40;86.60;;;;;;4972088;28;20218;-72
2023/09/16 04:46:23;;;;;;;26.30;14.40;;;16.40;86.60;;;;;;4969261;28;20231;-73
2023/09/16 04:48:49;;;;;;;24.50;14.23;;;16.50;86.50;;;;;;4971927;28;20431;-73
2023/09/16 04:51:15;;;;;;;21.70;13.40;;;16.50;86.30;;;;;;4970570;28;20742;-71
2023/09/16 04:53:40;;;;;;;21.73;13.67;;;16.40;86.20;;;;;;4971086;28;20211;-71
2023/09/16 04:56:06;;;;;;;21.73;13.27;;;16.50;86.20;;;;;;4968042;28;20509;-72
2023/09/16 04:58:32;;;;;;;23.00;13.50;;;16.40;86.00;;;;;;4979269;28;20178;-74
2023/09/16 05:01:03;;;;;;;20.10;12.20;;;16.40;86.00;;;;;;4978208;28;20183;-72
2023/09/16 05:03:28;;;;;;;23.67;13.90;;;16.40;86.00;;;;;;4980154;28;20448;-71
2023/09/16 05:05:54;;;;;;;24.63;14.60;;;16.40;85.90;;;;;;4978566;28;21016;-71
2023/09/16 05:08:20;;;;;;;21.87;13.33;;;16.40;85.90;;;;;;4980123;28;20647;-72
2023/09/16 05:10:53;;;;;;;25.00;13.70;;;16.30;86.00;;;;;;4994793;28;20233;-69
2023/09/16 05:13:18;;;;;;;21.50;13.40;;;16.30;86.30;;;;;;4980671;28;20485;-71
2023/09/16 05:15:47;;;;;;;24.87;13.83;;;16.30;86.50;;;;;;4972139;28;20481;-72
2023/09/16 05:18:13;;;;;;;33.27;14.87;;;16.20;86.80;;;;;;4976324;28;20183;-71
2023/09/16 05:20:39;;;;;;;24.07;14.10;;;16.30;86.60;;;;;;4977257;28;20509;-71
2023/09/16 05:23:04;;;;;;;28.67;15.30;;;16.20;86.60;;;;;;4978879;28;20449;-73
2023/09/16 05:25:30;;;;;;;28.33;14.73;;;16.00;86.80;;;;;;4973268;28;20214;-73
2023/09/16 05:27:55;;;;;;;27.33;14.40;;;15.90;87.00;;;;;;4978673;28;20204;-72
2023/09/16 05:30:21;;;;;;;25.00;13.60;;;15.90;87.30;;;;;;4977653;28;20205;-72
2023/09/16 05:32:47;;;;;;;27.17;14.03;;;15.90;87.30;;;;;;4977081;28;20201;-74
2023/09/16 05:35:12;;;;;;;24.53;15.70;;;15.90;87.30;;;;;;4972339;28;20590;-72
2023/09/16 05:37:38;;;;;;;26.83;15.30;;;15.90;87.30;;;;;;4974854;28;20190;-70
2023/09/16 05:40:04;;;;;;;27.80;15.27;;;15.90;87.60;;;;;;4979913;28;20200;-71
2023/09/16 05:42:30;;;;;;;31.00;15.93;;;15.90;87.70;;;;;;4978749;28;20430;-72
2023/09/16 05:44:56;;;;;;;28.57;15.23;;;16.00;87.80;;;;;;4968714;28;20475;-72
2023/09/16 05:47:21;;;;;;;32.23;16.80;;;16.00;87.60;;;;;;4984704;28;20550;-72
2023/09/16 05:49:47;;;;;;;37.40;16.67;;;15.90;87.80;;;;;;4974923;28;20423;-73
2023/09/16 05:52:12;;;;;;;31.40;16.60;;;15.90;88.00;;;;;;4974050;28;20198;-74
2023/09/16 05:54:38;;;;;;;27.47;16.10;;;15.90;88.10;;;;;;4971479;28;20269;-72
2023/09/16 05:57:04;;;;;;;31.73;15.90;;;15.90;88.30;;;;;;4972991;28;20214;-73
2023/09/16 05:59:29;;;;;;;31.37;16.83;;;15.90;88.10;;;;;;4974061;28;20189;-72
2023/09/16 06:01:55;;;;;;;33.20;16.80;;;16.00;88.10;;;;;;4974446;28;20219;-71
2023/09/16 06:04:20;;;;;;;27.07;15.53;;;16.00;87.60;;;;;;4972704;28;20202;-72
2023/09/16 06:06:49;;;;;;;28.00;15.57;;;16.10;87.60;;;;;;4972901;28;20257;-74
2023/09/16 06:09:14;;;;;;;30.93;15.80;;;16.10;87.40;;;;;;4971109;28;20584;-72
2023/09/16 06:11:40;;;;;;;34.40;16.97;;;16.10;87.40;;;;;;4971392;28;20438;-73
2023/09/16 06:14:06;;;;;;;29.10;16.27;;;16.10;87.80;;;;;;4977988;28;20210;-73
2023/09/16 06:16:31;;;;;;;26.60;15.50;;;16.30;87.70;;;;;;4972552;28;20202;-73
2023/09/16 06:18:57;;;;;;;29.60;15.30;;;16.40;87.10;;;;;;4976538;28;20194;-73
2023/09/16 06:21:23;;;;;;;28.60;17.23;;;16.40;86.50;;;;;;4979965;28;20422;-73
2023/09/16 06:23:48;;;;;;;27.90;17.10;;;16.40;86.30;;;;;;4975187;28;20191;-73
2023/09/16 06:26:14;;;;;;;33.17;17.57;;;16.40;86.60;;;;;;4972199;28;20626;-74
2023/09/16 06:28:40;;;;;;;30.07;17.50;;;16.50;86.80;;;;;;4974351;28;20184;-73
2023/09/16 06:31:05;;;;;;;30.87;17.40;;;16.50;86.50;;;;;;4974024;28;20236;-71
2023/09/16 06:33:31;;;;;;;31.50;17.20;;;16.60;86.30;;;;;;4969621;28;20313;-74
2023/09/16 06:35:56;;;;;;;28.43;16.13;;;16.70;86.30;;;;;;4969960;28;20214;-73
2023/09/16 06:38:22;;;;;;;28.57;16.83;;;16.80;86.00;;;;;;4976169;28;20191;-74
2023/09/16 06:40:48;;;;;;;26.00;16.43;;;16.80;85.70;;;;;;4995307;28;20666;-73
2023/09/16 06:43:13;;;;;;;28.63;15.40;;;16.90;85.50;;;;;;4977625;28;20183;-73
2023/09/16 06:45:39;;;;;;;35.53;18.07;;;17.10;84.60;;;;;;4970278;28;20652;-73
2023/09/16 06:48:05;;;;;;;30.77;16.20;;;17.10;84.10;;;;;;4973104;28;20325;-75
2023/09/16 06:50:30;;;;;;;27.80;16.20;;;17.10;84.30;;;;;;4973380;28;20242;-73
2023/09/16 06:52:56;;;;;;;26.40;15.17;;;17.10;84.60;;;;;;4970570;28;20194;-74
2023/09/16 06:55:21;;;;;;;23.67;15.50;;;17.20;84.70;;;;;;4969819;28;20638;-72
2023/09/16 06:57:47;;;;;;;30.20;17.00;;;17.20;84.70;;;;;;4971165;28;20329;-74
2023/09/16 07:00:13;;;;;;;31.90;18.90;;;17.40;84.70;;;;;;4971508;28;20194;-75
2023/09/16 07:02:39;;;;;;;29.87;16.20;;;17.40;84.40;;;;;;4981574;28;20182;-72
2023/09/16 07:05:04;;;;;;;30.53;16.53;;;17.40;84.30;;;;;;4969588;28;20473;-74
2023/09/16 07:07:30;;;;;;;29.77;17.73;;;17.40;84.30;;;;;;4972537;28;20273;-72
2023/09/16 07:09:56;;;;;;;26.90;15.50;;;17.50;84.10;;;;;;4968876;28;20569;-72
2023/09/16 07:12:22;;;;;;;32.20;17.10;;;17.50;84.00;;;;;;4973374;28;20543;-72
2023/09/16 07:14:48;;;;;;;30.67;16.80;;;17.60;84.00;;;;;;4980168;28;20190;-71
2023/09/16 07:17:14;;;;;;;31.63;17.37;;;17.60;84.00;;;;;;4973778;28;20845;-74
2023/09/16 07:19:40;;;;;;;26.93;16.23;;;17.70;84.00;;;;;;4974182;28;20414;-75
2023/09/16 07:22:06;;;;;;;28.43;15.57;;;17.80;83.80;;;;;;4978294;28;20441;-76
2023/09/16 07:24:32;;;;;;;25.70;14.80;;;18.00;83.70;;;;;;4974679;28;20936;-76
2023/09/16 07:26:58;;;;;;;28.23;16.20;;;18.10;83.10;;;;;;4971369;28;20203;-76
2023/09/16 07:29:24;;;;;;;31.40;15.97;;;18.30;82.80;;;;;;4969405;28;20467;-77
2023/09/16 07:31:49;;;;;;;27.40;14.87;;;18.40;82.70;;;;;;4970783;28;20184;-76
2023/09/16 07:34:15;;;;;;;31.83;16.67;;;18.50;82.40;;;;;;4978018;28;20184;-77
2023/09/16 07:36:42;;;;;;;29.70;16.87;;;18.60;81.80;;;;;;4971203;28;20203;-77
2023/09/16 07:39:08;;;;;;;35.23;21.50;;;18.60;81.50;;;;;;4971018;28;20792;-76
2023/09/16 07:41:33;;;;;;;34.23;20.03;;;18.70;81.20;;;;;;4971386;28;20444;-76
2023/09/16 07:43:59;;;;;;;28.63;17.60;;;18.80;80.80;;;;;;4970043;28;20447;-76
2023/09/16 07:46:26;;;;;;;25.83;16.17;;;18.80;80.80;;;;;;4969996;28;20287;-77
2023/09/16 07:48:51;;;;;;;25.17;15.07;;;18.90;80.90;;;;;;4970871;28;21042;-76
2023/09/16 07:51:20;;;;;;;25.50;15.27;;;19.00;80.60;;;;;;4973429;28;20463;-75
2023/09/16 07:53:45;;;;;;;27.37;14.57;;;19.10;80.20;;;;;;4974949;28;20383;-77
2023/09/16 07:56:11;;;;;;;27.40;15.60;;;19.20;80.00;;;;;;4971523;28;20537;-76
2023/09/16 07:58:36;;;;;;;25.60;14.77;;;19.30;80.00;;;;;;4989370;28;20260;-77
2023/09/16 08:01:02;;;;;;;22.17;14.07;;;19.40;79.60;;;;;;4973478;28;20198;-76
2023/09/16 08:03:28;;;;;;;25.80;14.27;;;19.50;79.50;;;;;;4972134;28;20200;-76
2023/09/16 08:05:53;;;;;;;26.00;14.40;;;19.60;79.50;;;;;;4970275;28;20212;-78
2023/09/16 08:08:19;;;;;;;25.40;14.20;;;19.80;79.00;;;;;;4970389;28;20199;-76
2023/09/16 08:10:46;;;;;;;26.53;15.20;;;19.80;78.90;;;;;;4970797;28;20219;-76
2023/09/16 08:13:12;;;;;;;25.93;16.30;;;20.00;78.10;;;;;;4971493;28;20633;-75
2023/09/16 08:15:37;;;;;;;29.37;16.13;;;20.10;78.10;;;;;;4973363;28;20545;-76
2023/09/16 08:18:03;;;;;;;24.10;14.90;;;20.10;78.00;;;;;;4970380;28;20262;-76
2023/09/16 08:20:29;;;;;;;20.10;13.50;;;20.20;77.80;;;;;;4972576;28;20196;-76
2023/09/16 08:22:56;;;;;;;26.50;13.80;;;20.40;77.10;;;;;;4970562;28;20196;-75
2023/09/16 08:25:23;;;;;;;23.50;12.70;;;20.50;76.70;;;;;;4967837;28;20462;-76
2023/09/16 08:27:48;;;;;;;20.93;13.73;;;20.60;76.70;;;;;;4971863;28;20441;-76
2023/09/16 08:30:14;;;;;;;21.60;13.57;;;20.70;76.10;;;;;;4973590;28;20562;-76
2023/09/16 08:32:40;;;;;;;21.70;11.77;;;20.60;76.10;;;;;;4973138;28;20263;-76
2023/09/16 08:35:08;;;;;;;20.20;12.40;;;20.80;76.40;;;;;;4968106;28;20213;-76
2023/09/16 08:37:35;;;;;;;21.17;13.27;;;20.90;75.70;;;;;;4974274;28;20199;-76
2023/09/16 08:40:01;;;;;;;22.93;13.67;;;21.00;75.40;;;;;;4974413;28;20438;-75
2023/09/16 08:42:43;;;;;;;20.13;12.67;;;21.00;75.10;;;;;;4972826;28;20475;-79
2023/09/16 08:45:14;;;;;;;19.50;12.47;;;21.10;75.50;;;;;;4972023;28;20457;-76
2023/09/16 08:47:42;;;;;;;20.27;13.07;;;21.30;74.60;;;;;;4989236;28;20472;-76
2023/09/16 08:50:09;;;;;;;21.87;13.37;;;21.30;74.60;;;;;;4973507;28;20554;-76
2023/09/16 08:52:50;;;;;;;16.70;11.10;;;21.30;74.80;;;;;;4975289;28;20423;-77
2023/09/16 08:55:16;;;;;;;18.83;11.23;;;21.40;74.20;;;;;;4973491;28;20475;-76
2023/09/16 08:57:45;;;;;;;21.90;12.37;;;21.50;74.00;;;;;;4972007;28;20424;-75
2023/09/16 09:00:12;;;;;;;16.30;10.67;;;21.50;73.70;;;;;;4972094;28;20429;-76
2023/09/16 09:02:39;;;;;;;21.73;11.80;;;21.60;73.90;;;;;;4971844;28;20852;-78
2023/09/16 09:05:06;;;;;;;22.13;11.60;;;21.70;73.50;;;;;;4972565;28;20556;-77
2023/09/16 09:07:36;;;;;;;24.30;11.33;;;21.80;73.00;;;;;;4971946;28;20981;-76
2023/09/16 09:10:01;;;;;;;14.93;9.10;;;22.10;71.80;;;;;;4972685;28;21323;-77
2023/09/16 09:12:28;;;;;;;19.43;11.27;;;22.20;71.40;;;;;;4972645;28;20512;-78
2023/09/16 09:14:54;;;;;;;14.77;9.47;;;22.30;71.70;;;;;;4971278;28;20226;-76
2023/09/16 09:17:22;;;;;;;14.77;9.90;;;22.30;71.60;;;;;;4973787;28;20537;-76
2023/09/16 09:19:49;;;;;;;17.37;9.93;;;22.50;71.30;;;;;;4969691;28;20422;-75
2023/09/16 09:22:15;;;;;;;18.10;9.70;;;22.60;70.50;;;;;;4974113;28;20430;-76
2023/09/16 09:24:41;;;;;;;15.37;9.60;;;22.80;69.50;;;;;;4971771;28;20432;-75
2023/09/16 09:27:06;;;;;;;14.80;10.27;;;22.90;69.10;;;;;;4970078;28;20876;-76
2023/09/16 09:29:32;;;;;;;15.23;10.07;;;23.00;68.80;;;;;;4975647;28;20353;-76
2023/09/16 09:31:58;;;;;;;15.90;9.60;;;23.00;68.50;;;;;;4971205;28;20550;-76
2023/09/16 09:34:27;;;;;;;21.87;10.13;;;23.10;68.60;;;;;;4970291;28;20249;-76
2023/09/16 09:36:54;;;;;;;14.83;9.10;;;23.10;68.30;;;;;;4967746;28;20327;-76
2023/09/16 09:39:20;;;;;;;13.80;8.90;;;23.20;67.90;;;;;;4969831;28;20427;-75
2023/09/16 09:41:46;;;;;;;14.80;8.60;;;23.30;67.70;;;;;;4972659;28;20491;-78
2023/09/16 09:44:15;;;;;;;14.13;8.87;;;23.50;67.20;;;;;;4969105;28;20745;-76
2023/09/16 09:46:41;;;;;;;11.33;8.40;;;23.50;66.00;;;;;;4968890;28;20460;-73
2023/09/16 09:49:10;;;;;;;12.97;8.30;;;23.60;66.30;;;;;;4973325;28;20440;-74
2023/09/16 09:51:36;;;;;;;11.73;8.00;;;23.60;65.80;;;;;;4971400;28;20672;-73
2023/09/16 09:54:03;;;;;;;14.00;8.90;;;23.60;65.30;;;;;;4970368;28;20502;-73
2023/09/16 09:56:30;;;;;;;11.50;7.83;;;23.60;65.30;;;;;;4970058;28;20464;-75
2023/09/16 09:58:56;;;;;;;10.07;6.60;;;23.60;65.10;;;;;;4974588;28;20948;-72
2023/09/16 10:01:22;;;;;;;19.60;7.57;;;23.70;64.10;;;;;;4975744;28;20430;-73
2023/09/16 10:03:48;;;;;;;9.90;7.23;;;23.90;63.80;;;;;;4972240;28;20964;-75
2023/09/16 10:06:19;;;;;;;9.90;6.97;;;23.90;63.80;;;;;;4969539;28;20221;-73
2023/09/16 10:08:46;;;;;;;12.40;8.00;;;23.90;63.90;;;;;;4973592;28;20440;-74
2023/09/16 10:11:12;;;;;;;9.93;7.37;;;24.00;63.90;;;;;;4974334;28;20486;-73
2023/09/16 10:13:39;;;;;;;10.67;7.13;;;24.00;63.70;;;;;;4974393;28;20462;-73
2023/09/16 10:16:06;;;;;;;10.77;7.30;;;24.10;63.70;;;;;;4972549;28;20484;-74
2023/09/16 10:18:32;;;;;;;10.60;7.23;;;24.20;63.40;;;;;;4975808;28;20445;-74
2023/09/16 10:20:58;;;;;;;10.97;6.90;;;24.30;63.10;;;;;;4972763;28;20442;-74
2023/09/16 10:23:23;;;;;;;10.70;7.53;;;24.40;62.60;;;;;;4973548;28;20419;-74
2023/09/16 10:25:50;;;;;;;10.70;6.73;;;24.50;62.30;;;;;;4969391;28;20204;-72
2023/09/16 10:28:17;;;;;;;12.33;8.07;;;24.60;62.30;;;;;;4973871;28;20210;-72
2023/09/16 10:30:43;;;;;;;8.20;6.13;;;24.70;62.30;;;;;;4980435;28;20550;-73
2023/09/16 10:33:11;;;;;;;11.77;6.93;;;24.70;61.60;;;;;;4974216;28;20522;-73
2023/09/16 10:35:40;;;;;;;12.93;7.23;;;24.80;61.90;;;;;;4969200;28;20474;-73
2023/09/16 10:38:07;;;;;;;9.07;6.80;;;25.00;62.00;;;;;;4972308;28;20491;-72
2023/09/16 10:40:34;;;;;;;7.93;5.97;;;25.30;60.60;;;;;;4972239;28;20787;-74
2023/09/16 10:43:02;;;;;;;10.07;6.60;;;25.70;60.40;;;;;;4975108;28;21386;-73
2023/09/16 10:45:28;;;;;;;8.80;6.23;;;26.20;60.30;;;;;;4972596;28;20476;-74
2023/09/16 10:47:54;;;;;;;8.90;6.50;;;26.70;60.00;;;;;;4975087;28;20487;-73
2023/09/16 10:50:30;;;;;;;9.03;6.13;;;27.00;59.60;;;;;;4976005;28;20474;-73
2023/09/16 10:53:12;;;;;;;8.23;6.00;;;27.30;59.20;;;;;;4968769;28;20418;-73
2023/09/16 10:55:55;;;;;;;10.50;6.07;;;27.40;58.40;;;;;;4963987;28;20454;-72
2023/09/16 10:58:58;;;;;;;7.97;6.07;;;27.60;57.80;;;;;;4971976;28;20449;-73
2023/09/16 11:01:31;;;;;;;7.57;5.57;;;27.80;57.80;;;;;;4973662;28;20431;-74
2023/09/16 11:04:03;;;;;;;10.13;5.50;;;28.20;56.80;;;;;;4975140;28;20457;-73
2023/09/16 11:06:29;;;;;;;6.90;5.47;;;28.30;56.10;;;;;;4971835;28;20473;-72
2023/09/16 11:08:54;;;;;;;7.17;5.03;;;28.20;56.10;;;;;;4975926;28;20423;-72
2023/09/16 11:11:21;;;;;;;10.00;5.13;;;28.40;55.20;;;;;;4974590;28;20478;-73
2023/09/16 11:13:47;;;;;;;6.50;3.83;;;28.40;54.20;;;;;;4971926;28;20694;-73
2023/09/16 11:16:13;;;;;;;6.57;4.87;;;28.50;52.90;;;;;;4968599;28;20537;-73
2023/09/16 11:18:42;;;;;;;3.57;3.20;;;28.50;52.90;;;;;;4968576;28;20275;-73
2023/09/16 11:21:08;;;;;;;4.77;3.93;;;28.50;52.40;;;;;;4974161;28;20191;-75
2023/09/16 11:23:35;;;;;;;6.80;4.70;;;28.50;52.90;;;;;;4975253;28;20569;-75
2023/09/16 11:26:03;;;;;;;7.40;5.70;;;28.60;53.20;;;;;;4969766;28;20462;-73
2023/09/16 11:28:29;;;;;;;5.97;5.23;;;28.50;53.70;;;;;;4971203;28;20435;-74
2023/09/16 11:30:57;;;;;;;5.93;4.50;;;28.50;54.00;;;;;;4970110;28;20478;-73
2023/09/16 11:33:26;;;;;;;6.30;4.50;;;28.90;54.00;;;;;;4972061;28;20267;-73
2023/09/16 11:36:15;;;;;;;7.57;4.83;;;29.40;52.60;;;;;;4968501;28;20513;-73
2023/09/16 11:38:55;;;;;;;6.30;4.37;;;29.40;51.40;;;;;;4972050;28;20485;-73
2023/09/16 11:41:20;;;;;;;4.80;3.97;;;29.10;51.30;;;;;;4972178;28;20474;-73
2023/09/16 11:43:46;;;;;;;5.43;4.10;;;29.10;50.70;;;;;;4970822;28;20430;-73
2023/09/16 11:46:12;;;;;;;6.17;4.17;;;29.30;51.40;;;;;;4968042;28;20598;-73
2023/09/16 11:48:54;;;;;;;5.30;4.47;;;29.60;50.90;;;;;;4972392;28;20426;-73
2023/09/16 11:51:23;;;;;;;4.63;3.70;;;29.50;50.70;;;;;;4971713;28;20490;-73
2023/09/16 11:53:52;;;;;;;3.90;3.27;;;29.50;49.30;;;;;;4970879;28;20437;-75
2023/09/16 11:56:21;;;;;;;4.70;3.10;;;29.50;49.40;;;;;;4968522;28;20557;-75
2023/09/16 11:58:47;;;;;;;3.77;3.10;;;29.80;48.50;;;;;;4971465;28;20501;-75
2023/09/16 12:01:18;;;;;;;8.20;3.10;;;30.00;48.50;;;;;;4979562;28;20993;-74
2023/09/16 12:03:44;;;;;;;4.80;3.60;;;30.20;47.50;;;;;;4971269;28;21004;-72
2023/09/16 12:06:10;;;;;;;5.43;3.50;;;30.20;47.90;;;;;;4972012;28;21007;-72
2023/09/16 12:08:39;;;;;;;4.50;3.40;;;30.10;48.50;;;;;;4977565;28;20437;-75
2023/09/16 12:11:05;;;;;;;3.73;3.23;;;30.00;48.20;;;;;;4976642;28;20485;-74
2023/09/16 12:13:31;;;;;;;4.47;3.07;;;30.10;48.90;;;;;;4975083;28;20526;-73
2023/09/16 12:15:58;;;;;;;5.00;3.80;;;30.20;48.10;;;;;;4972435;28;20936;-72
2023/09/16 12:18:24;;;;;;;4.63;3.07;;;30.00;47.70;;;;;;4977303;28;20274;-73
2023/09/16 12:20:50;;;;;;;7.70;3.87;;;30.00;48.70;;;;;;4977081;28;20517;-73
2023/09/16 12:23:16;;;;;;;5.23;3.30;;;29.90;48.20;;;;;;4973144;28;20184;-72
2023/09/16 12:25:44;;;;;;;5.00;3.20;;;29.80;48.60;;;;;;4972849;28;20486;-73
2023/09/16 12:28:11;;;;;;;4.03;3.30;;;29.90;48.50;;;;;;4974913;28;20194;-75
2023/09/16 12:30:43;;;;;;;5.47;3.60;;;30.10;48.50;;;;;;4974779;28;20474;-74